createdAt,value
2023-01-19T00:02:06.002Z,6.40
2023-01-19T00:05:10.515Z,6.10
2023-01-19T00:08:18.615Z,6.30
2023-01-19T00:11:23.479Z,6.78
2023-01-19T00:14:32.337Z,6.45
2023-01-19T00:17:36.609Z,6.43
2023-01-19T00:20:42.577Z,6.18
2023-01-19T00:23:53.660Z,6.10
2023-01-19T00:27:09.410Z,6.38
2023-01-19T00:30:19.626Z,6.45
2023-01-19T00:33:21.743Z,6.00
2023-01-19T00:36:27.688Z,6.53
2023-01-19T00:39:32.130Z,5.80
2023-01-19T00:42:46.063Z,5.85
2023-01-19T00:45:47.880Z,5.70
2023-01-19T00:48:49.599Z,6.20
2023-01-19T00:51:51.415Z,5.82
2023-01-19T00:54:53.212Z,6.13
2023-01-19T00:58:00.419Z,5.65
2023-01-19T01:01:04.931Z,5.78
2023-01-19T01:04:09.161Z,5.23
2023-01-19T01:07:11.003Z,5.47
2023-01-19T01:10:20.614Z,5.63
2023-01-19T01:13:23.619Z,5.40
2023-01-19T01:16:26.780Z,5.80
2023-01-19T01:19:28.827Z,5.57
2023-01-19T01:22:31.873Z,5.82
2023-01-19T01:25:41.666Z,5.13
2023-01-19T01:28:52.014Z,5.30
2023-01-19T01:31:58.845Z,5.25
2023-01-19T01:35:01.210Z,5.47
2023-01-19T01:38:19.362Z,5.40
2023-01-19T01:41:34.416Z,5.60
2023-01-19T01:45:00.064Z,5.63
2023-01-19T01:48:12.435Z,5.20
2023-01-19T01:51:30.418Z,5.75
2023-01-19T01:54:45.846Z,5.68
2023-01-19T01:57:54.081Z,5.57
2023-01-19T02:01:14.443Z,5.60
2023-01-19T02:04:19.052Z,5.30
2023-01-19T02:07:52.086Z,5.83
2023-01-19T02:11:14.436Z,6.10
2023-01-19T02:14:21.374Z,5.70
2023-01-19T02:17:33.837Z,6.38
2023-01-19T02:20:41.731Z,5.47
2023-01-19T02:24:05.637Z,6.38
2023-01-19T02:27:19.075Z,6.03
2023-01-19T02:30:21.442Z,5.37
2023-01-19T02:33:31.160Z,6.15
2023-01-19T02:37:15.526Z,6.05
2023-01-19T02:40:26.947Z,5.83
2023-01-19T02:43:35.798Z,5.80
2023-01-19T02:46:43.907Z,6.03
2023-01-19T02:50:02.870Z,5.90
2023-01-19T02:53:18.354Z,5.90
2023-01-19T02:56:57.646Z,5.80
2023-01-19T03:00:19.913Z,5.70
2023-01-19T03:03:40.151Z,6.00
2023-01-19T03:07:18.899Z,6.30
2023-01-19T03:11:02.758Z,6.32
2023-01-19T03:14:11.201Z,5.97
2023-01-19T03:17:20.964Z,6.18
2023-01-19T03:20:32.427Z,6.03
2023-01-19T03:23:38.929Z,5.57
2023-01-19T03:27:00.124Z,6.50
2023-01-19T03:30:12.424Z,6.18
2023-01-19T03:33:29.687Z,6.20
2023-01-19T03:36:38.309Z,5.80
2023-01-19T03:39:40.477Z,6.43
2023-01-19T03:42:47.783Z,5.80
2023-01-19T03:45:57.388Z,6.20
2023-01-19T03:49:02.361Z,6.30
2023-01-19T03:52:08.186Z,5.70
2023-01-19T03:55:12.417Z,6.40
2023-01-19T03:58:14.481Z,6.28
2023-01-19T04:01:21.316Z,5.78
2023-01-19T04:04:23.188Z,5.95
2023-01-19T04:07:25.125Z,6.03
2023-01-19T04:10:31.645Z,6.18
2023-01-19T04:13:39.146Z,5.60
2023-01-19T04:16:46.719Z,6.30
2023-01-19T04:19:54.575Z,5.50
2023-01-19T04:23:22.428Z,6.20
2023-01-19T04:26:32.249Z,6.28
2023-01-19T04:29:36.185Z,5.88
2023-01-19T04:32:37.933Z,6.05
2023-01-19T04:35:39.829Z,6.38
2023-01-19T04:38:41.759Z,6.10
2023-01-19T04:41:44.022Z,6.47
2023-01-19T04:44:46.048Z,6.32
2023-01-19T04:47:47.855Z,6.27
2023-01-19T04:50:51.468Z,5.70
2023-01-19T04:53:53.222Z,6.93
2023-01-19T04:56:55.136Z,6.20
2023-01-19T04:59:57.660Z,6.28
2023-01-19T05:03:00.001Z,6.53
2023-01-19T05:06:02.023Z,6.53
2023-01-19T05:09:04.504Z,7.17
2023-01-19T05:12:06.304Z,6.60
2023-01-19T05:15:09.663Z,6.88
2023-01-19T05:18:11.431Z,6.70
2023-01-19T05:21:13.178Z,6.43
2023-01-19T05:24:15.598Z,7.40
2023-01-19T05:27:17.447Z,7.35
2023-01-19T05:30:19.384Z,6.55
2023-01-19T05:33:22.160Z,6.28
2023-01-19T05:36:23.947Z,6.93
2023-01-19T05:39:26.819Z,6.90
2023-01-19T05:42:28.576Z,6.85
2023-01-19T05:45:30.639Z,6.30
2023-01-19T05:48:32.843Z,7.00
2023-01-19T05:51:38.494Z,6.88
2023-01-19T05:54:40.510Z,6.63
2023-01-19T05:57:43.262Z,6.82
2023-01-19T06:00:44.994Z,6.60
2023-01-19T06:03:48.824Z,6.35
2023-01-19T06:06:51.099Z,7.20
2023-01-19T06:09:52.900Z,6.90
2023-01-19T06:12:54.699Z,7.53
2023-01-19T06:15:58.634Z,7.13
2023-01-19T06:19:00.480Z,7.70
2023-01-19T06:22:03.014Z,7.90
2023-01-19T06:25:06.168Z,7.15
2023-01-19T06:28:07.921Z,7.78
2023-01-19T06:31:09.914Z,7.20
2023-01-19T06:34:12.179Z,8.27
2023-01-19T06:37:16.376Z,8.35
2023-01-19T06:40:20.423Z,8.50
2023-01-19T06:43:22.667Z,9.98
2023-01-19T06:46:24.977Z,8.23
2023-01-19T06:49:27.110Z,7.60
2023-01-19T06:52:29.474Z,7.95
2023-01-19T06:55:31.748Z,8.68
2023-01-19T06:58:35.141Z,9.40
2023-01-19T07:01:37.511Z,8.50
2023-01-19T07:04:39.796Z,8.40
2023-01-19T07:07:45.761Z,8.13
2023-01-19T07:11:26.013Z,7.20
2023-01-19T07:14:10.483Z,7.43
2023-01-19T07:17:13.098Z,8.45
2023-01-19T07:20:15.228Z,7.53
2023-01-19T07:23:17.718Z,7.57
2023-01-19T07:26:21.623Z,7.70
2023-01-19T07:29:23.824Z,7.28
2023-01-19T07:32:27.286Z,6.18
2023-01-19T07:35:30.306Z,7.07
2023-01-19T07:38:32.868Z,6.53
2023-01-19T07:41:35.134Z,7.23
2023-01-19T07:44:38.651Z,7.32
2023-01-19T07:47:42.657Z,7.45
2023-01-19T07:50:45.658Z,8.10
2023-01-19T07:53:51.399Z,7.47
2023-01-19T07:56:56.279Z,7.43
2023-01-19T07:59:58.505Z,7.63
2023-01-19T08:03:01.969Z,7.00
2023-01-19T08:06:05.317Z,7.40
2023-01-19T08:09:07.528Z,7.72
2023-01-19T08:12:09.353Z,8.00
2023-01-19T08:15:11.837Z,7.90
2023-01-19T08:18:15.727Z,7.53
2023-01-19T08:21:18.099Z,8.13
2023-01-19T08:24:23.211Z,8.02
2023-01-19T08:27:25.547Z,8.15
2023-01-19T08:30:27.894Z,8.15
2023-01-19T08:33:29.690Z,8.13
2023-01-19T08:36:32.358Z,8.02
2023-01-19T08:39:35.295Z,7.63
2023-01-19T08:42:37.701Z,7.90
2023-01-19T08:45:46.618Z,8.25
2023-01-19T08:48:49.450Z,8.18
2023-01-19T08:51:51.749Z,8.30
2023-01-19T08:54:53.564Z,7.15
2023-01-19T08:57:58.076Z,7.20
2023-01-19T09:01:01.508Z,7.25
2023-01-19T09:04:10.835Z,7.10
2023-01-19T09:07:13.353Z,7.47
2023-01-19T09:10:30.379Z,6.90
2023-01-19T09:13:33.101Z,6.70
2023-01-19T09:16:35.685Z,7.00
2023-01-19T09:19:45.573Z,6.35
2023-01-19T09:22:49.141Z,6.90
2023-01-19T09:25:57.567Z,6.32
2023-01-19T09:29:14.311Z,6.80
2023-01-19T09:32:20.549Z,6.65
2023-01-19T09:35:26.317Z,6.80
2023-01-19T09:38:32.099Z,6.78
2023-01-19T09:41:43.194Z,6.50
2023-01-19T09:48:22.754Z,6.32
2023-01-19T09:51:39.536Z,5.65
2023-01-19T09:54:52.815Z,6.17
2023-01-19T09:58:01.493Z,5.38
2023-01-19T10:01:20.515Z,5.90
2023-01-19T10:04:40.217Z,6.00
2023-01-19T10:07:54.753Z,5.25
2023-01-19T10:10:58.299Z,5.75
2023-01-19T10:14:00.112Z,5.20
2023-01-19T10:17:42.279Z,5.47
2023-01-19T10:20:51.539Z,4.90
2023-01-19T10:24:06.576Z,4.57
2023-01-19T10:27:19.279Z,4.90
2023-01-19T10:30:28.485Z,4.30
2023-01-19T10:33:31.982Z,4.80
2023-01-19T10:36:44.484Z,4.50
2023-01-19T10:39:54.611Z,4.32
2023-01-19T10:42:57.922Z,4.63
2023-01-19T10:46:00.194Z,3.90
2023-01-19T10:49:02.399Z,3.90
2023-01-19T10:52:08.042Z,3.90
2023-01-19T10:55:25.508Z,3.80
2023-01-19T10:58:31.024Z,3.57
2023-01-19T11:01:38.268Z,4.10
2023-01-19T11:04:42.193Z,3.80
2023-01-19T11:07:44.459Z,4.38
2023-01-19T11:10:56.388Z,4.25
2023-01-19T11:14:26.048Z,3.97
2023-01-19T11:17:28.786Z,3.72
2023-01-19T11:20:50.416Z,4.63
2023-01-19T11:23:55.466Z,4.10
2023-01-19T11:27:03.723Z,3.92
2023-01-19T11:30:24.745Z,3.87
2023-01-19T11:33:34.449Z,3.75
2023-01-19T11:36:36.979Z,4.22
2023-01-19T11:40:00.581Z,3.97
2023-01-19T11:43:02.724Z,4.30
2023-01-19T11:46:05.332Z,3.85
2023-01-19T11:49:20.047Z,3.85
2023-01-19T11:52:28.902Z,3.27
2023-01-19T11:55:34.266Z,3.50
2023-01-19T11:58:48.085Z,4.47
2023-01-19T12:01:57.541Z,4.93
2023-01-19T12:05:05.322Z,5.03
2023-01-19T12:08:17.241Z,3.78
2023-01-19T12:11:26.999Z,3.97
2023-01-19T12:14:39.163Z,3.17
2023-01-19T12:17:48.926Z,2.95
2023-01-19T12:20:54.290Z,3.20
2023-01-19T12:24:26.262Z,3.10
2023-01-19T12:27:43.471Z,3.10
2023-01-19T12:30:45.836Z,3.20
2023-01-19T12:33:48.112Z,3.20
2023-01-19T12:36:50.916Z,3.50
2023-01-19T12:39:53.998Z,3.20
2023-01-19T12:42:56.401Z,3.28
2023-01-19T12:45:58.472Z,4.22
2023-01-19T12:49:05.335Z,3.80
2023-01-19T12:52:19.094Z,3.30
2023-01-19T12:55:35.075Z,2.90
2023-01-19T12:58:36.826Z,3.25
2023-01-19T13:01:38.792Z,3.55
2023-01-19T13:04:40.840Z,3.20
2023-01-19T13:08:08.415Z,3.42
2023-01-19T13:11:17.137Z,3.58
2023-01-19T13:14:38.335Z,3.60
2023-01-19T13:17:54.664Z,2.92
2023-01-19T13:21:08.245Z,2.85
2023-01-19T13:24:12.957Z,2.90
2023-01-19T13:27:15.205Z,2.80
2023-01-19T13:30:20.210Z,3.25
2023-01-19T13:33:25.485Z,3.20
2023-01-19T13:36:31.437Z,3.10
2023-01-19T13:39:44.206Z,3.40
2023-01-19T13:42:48.206Z,3.28
2023-01-19T13:45:53.481Z,3.75
2023-01-19T13:49:04.852Z,3.65
2023-01-19T13:52:23.365Z,3.67
2023-01-19T13:55:28.637Z,3.55
2023-01-19T13:58:32.068Z,3.80
2023-01-19T14:01:34.609Z,3.90
2023-01-19T14:04:37.304Z,3.63
2023-01-19T14:07:39.574Z,3.93
2023-01-19T14:10:54.738Z,4.30
2023-01-19T14:13:56.576Z,4.20
2023-01-19T14:16:59.689Z,4.85
2023-01-19T14:20:01.808Z,4.22
2023-01-19T14:23:05.717Z,4.13
2023-01-19T14:26:38.776Z,4.43
2023-01-19T14:29:40.766Z,4.90
2023-01-19T14:32:47.678Z,4.63
2023-01-19T14:35:49.581Z,4.43
2023-01-19T14:38:52.967Z,4.70
2023-01-19T14:41:58.000Z,4.40
2023-01-19T14:45:03.081Z,4.20
2023-01-19T14:48:21.913Z,4.47
2023-01-19T14:51:26.223Z,3.83
2023-01-19T14:54:36.091Z,3.92
2023-01-19T14:57:38.373Z,3.13
2023-01-19T15:00:41.517Z,3.03
2023-01-19T15:03:45.628Z,3.50
2023-01-19T15:06:48.691Z,3.45
2023-01-19T15:09:51.906Z,3.73
2023-01-19T15:12:55.143Z,3.97
2023-01-19T15:15:59.005Z,4.05
2023-01-19T15:19:00.826Z,4.03
2023-01-19T15:22:02.696Z,4.78
2023-01-19T15:25:04.756Z,4.40
2023-01-19T15:28:12.272Z,4.70
2023-01-19T15:31:17.083Z,4.37
2023-01-19T15:34:19.055Z,5.38
2023-01-19T15:37:20.821Z,7.25
2023-01-19T15:40:23.384Z,6.67
2023-01-19T15:43:25.146Z,5.90
2023-01-19T15:46:26.922Z,5.18
2023-01-19T15:49:30.880Z,5.65
2023-01-19T15:52:32.507Z,5.43
2023-01-19T15:55:34.158Z,4.70
2023-01-19T15:58:35.920Z,4.97
2023-01-19T16:01:37.713Z,6.17
2023-01-19T16:04:39.485Z,5.03
2023-01-19T16:07:41.298Z,5.63
2023-01-19T16:10:43.285Z,5.60
2023-01-19T16:13:46.357Z,5.20
2023-01-19T16:16:48.339Z,5.10
2023-01-19T16:19:49.987Z,6.53
2023-01-19T16:22:51.820Z,6.38
2023-01-19T16:26:08.145Z,6.07
2023-01-19T16:29:10.983Z,7.03
2023-01-19T16:32:12.798Z,7.63
2023-01-19T16:35:15.786Z,7.05
2023-01-19T16:38:17.652Z,7.32
2023-01-19T16:41:20.072Z,7.60
2023-01-19T16:44:21.983Z,6.22
2023-01-19T16:47:24.397Z,6.38
2023-01-19T16:50:26.349Z,7.50
2023-01-19T16:53:29.731Z,6.53
2023-01-19T16:56:32.048Z,6.25
2023-01-19T16:59:33.994Z,6.18
2023-01-19T17:02:35.870Z,6.33
2023-01-19T17:05:39.140Z,6.82
2023-01-19T17:08:41.607Z,6.10
2023-01-19T17:11:43.891Z,12.83
2023-01-19T17:14:47.572Z,7.72
2023-01-19T17:17:49.477Z,7.25
2023-01-19T17:20:51.419Z,6.20
2023-01-19T17:23:54.855Z,7.28
2023-01-19T17:26:56.530Z,7.65
2023-01-19T17:29:58.261Z,6.75
2023-01-19T17:33:01.461Z,7.00
2023-01-19T17:36:12.835Z,6.35
2023-01-19T17:39:15.020Z,5.72
2023-01-19T17:42:16.876Z,6.17
2023-01-19T17:45:18.719Z,5.65
2023-01-19T17:48:46.713Z,5.80
2023-01-19T17:51:55.812Z,5.82
2023-01-19T17:54:57.927Z,6.40
2023-01-19T17:58:00.409Z,6.18
2023-01-19T18:01:31.864Z,6.50
2023-01-19T18:04:33.805Z,5.33
2023-01-19T18:07:35.671Z,6.38
2023-01-19T18:10:38.164Z,8.13
2023-01-19T18:13:42.893Z,7.60
2023-01-19T18:16:44.782Z,8.23
2023-01-19T18:19:46.825Z,9.48
2023-01-19T18:22:48.613Z,8.98
2023-01-19T18:25:50.657Z,7.25
2023-01-19T18:28:56.315Z,6.80
2023-01-19T18:31:58.171Z,7.55
2023-01-19T18:35:00.055Z,7.10
2023-01-19T18:38:01.832Z,7.70
2023-01-19T18:41:04.825Z,6.95
2023-01-19T18:44:06.536Z,9.40
2023-01-19T18:47:08.418Z,8.50
2023-01-19T18:50:11.091Z,9.07
2023-01-19T18:53:13.765Z,8.82
2023-01-19T18:56:16.576Z,8.40
2023-01-19T18:59:18.517Z,10.07
2023-01-19T19:02:20.443Z,11.48
2023-01-19T19:05:22.264Z,11.20
2023-01-19T19:08:24.293Z,8.40
2023-01-19T19:11:26.880Z,6.80
2023-01-19T19:14:28.769Z,6.40
2023-01-19T19:17:30.530Z,6.70
2023-01-19T19:20:32.326Z,7.10
2023-01-19T19:23:34.880Z,6.88
2023-01-19T19:26:36.753Z,7.63
2023-01-19T19:29:38.506Z,9.00
2023-01-19T19:32:40.294Z,8.68
2023-01-19T19:35:42.155Z,7.90
2023-01-19T19:38:44.905Z,11.25
2023-01-19T19:41:46.869Z,14.50
2023-01-19T19:44:48.730Z,11.70
2023-01-19T19:47:51.003Z,11.30
2023-01-19T19:50:53.200Z,10.40
2023-01-19T19:53:57.237Z,11.85
2023-01-19T19:56:59.072Z,21.67
2023-01-19T20:00:00.965Z,15.68
2023-01-19T20:03:02.712Z,19.95
2023-01-19T20:06:13.990Z,11.70
2023-01-19T20:09:16.764Z,9.70
2023-01-19T20:12:18.736Z,9.25
2023-01-19T20:15:20.593Z,8.97
2023-01-19T20:18:28.494Z,8.30
2023-01-19T20:21:32.904Z,8.00
2023-01-19T20:24:34.687Z,9.02
2023-01-19T20:27:36.426Z,9.98
2023-01-19T20:30:38.188Z,9.00
2023-01-19T20:33:42.035Z,8.60
2023-01-19T20:36:46.891Z,10.03
2023-01-19T20:39:49.023Z,9.10
2023-01-19T20:42:50.730Z,9.75
2023-01-19T20:45:52.889Z,9.37
2023-01-19T20:48:54.853Z,9.50
2023-01-19T20:51:56.916Z,8.60
2023-01-19T20:54:58.704Z,8.52
2023-01-19T20:58:00.394Z,8.60
2023-01-19T21:01:10.445Z,8.38
2023-01-19T21:04:12.824Z,8.75
2023-01-19T21:07:14.710Z,8.47
2023-01-19T21:10:19.546Z,8.40
2023-01-19T21:13:21.382Z,8.55
2023-01-19T21:16:24.937Z,8.10
2023-01-19T21:19:26.753Z,8.38
2023-01-19T21:22:28.428Z,8.20
2023-01-19T21:25:30.175Z,7.93
2023-01-19T21:28:31.893Z,7.75
2023-01-19T21:31:33.765Z,8.02
2023-01-19T21:34:35.666Z,8.13
2023-01-19T21:37:37.442Z,7.87
2023-01-19T21:40:39.204Z,7.80
2023-01-19T21:43:42.633Z,8.32
2023-01-19T21:46:44.353Z,7.80
2023-01-19T21:49:46.048Z,8.45
2023-01-19T21:52:47.770Z,11.25
2023-01-19T21:55:49.572Z,13.35
2023-01-19T21:58:51.355Z,13.15
2023-01-19T22:01:53.289Z,10.90
2023-01-19T22:04:55.188Z,9.98
2023-01-19T22:07:56.884Z,9.27
2023-01-19T22:11:05.939Z,10.88
2023-01-19T22:14:07.807Z,10.63
2023-01-19T22:17:09.605Z,11.07
2023-01-19T22:20:11.654Z,10.55
2023-01-19T22:23:13.541Z,10.00
2023-01-19T22:26:15.864Z,10.02
2023-01-19T22:29:17.771Z,9.00
2023-01-19T22:32:19.598Z,9.23
2023-01-19T22:35:21.599Z,8.10
2023-01-19T22:38:23.274Z,11.10
2023-01-19T22:41:30.546Z,13.32
2023-01-19T22:44:32.259Z,9.18
2023-01-19T22:47:33.979Z,8.03
2023-01-19T22:50:35.694Z,7.40
2023-01-19T22:53:37.398Z,7.38
2023-01-19T22:56:40.978Z,7.82
2023-01-19T22:59:43.662Z,7.47
2023-01-19T23:02:45.520Z,9.35
2023-01-19T23:05:47.348Z,9.82
2023-01-19T23:08:49.418Z,9.07
2023-01-19T23:11:51.428Z,8.57
2023-01-19T23:14:53.072Z,8.27
2023-01-19T23:17:54.824Z,8.73
2023-01-19T23:20:56.523Z,8.70
2023-01-19T23:24:02.993Z,8.32
2023-01-19T23:27:04.724Z,8.88
2023-01-19T23:30:08.020Z,8.88
2023-01-19T23:33:09.722Z,7.75
2023-01-19T23:36:12.158Z,7.55
2023-01-19T23:39:16.904Z,8.07
2023-01-19T23:42:18.593Z,7.97
2023-01-19T23:45:20.385Z,8.00
2023-01-19T23:48:22.121Z,8.50
2023-01-19T23:51:26.904Z,8.50
2023-01-19T23:54:28.845Z,7.60
2023-01-19T23:57:30.632Z,8.77
